Accueil
METAR-TAF:

METAR-TAF

Aéroports :

Aéroport international Cyril E. King

Saint-Thomas, Îles Vierges américaines

latitude: 18-20N, longitude: 064-59W, altitude: 7 m

Observation

Le bulletin a été fait il y a 30 minutes, à 19:53 UTC
Vent 3 kt de sud
Température 28°C
Humidité 70%
Pression 1012 hPa
Visibilité: 16.1 km
Ciel clair

METAR: TIST 031953Z 18003KT 10SM CLR 28/22 A2987 RMK AO2 SLP115 T02830217

Heure: 16:23 (20:23 UTC)

Prévision

Le bulletin a été fait il y a 3 heures et 2 minutes, à 17:21 UTC
Prévision valable du 03 à 18 UTC au 04 à 18 UTC
Vent 8 kt de sud/sud-est
Visibilité: 10 km
Quelques nuages à une hauteur de 3000 ft
A partir de 03 à 2200 UTC
Vent 5 kt de direction variable
Visibilité: 10 km
Quelques nuages à une hauteur de 2800 ft
Quelques nuages à une hauteur de 4000 ft

TAF: TIST 031721Z 0318/0418 16008KT P6SM FEW030 FM032200 VRB05KT P6SM FEW028 FEW040

Observations et prévisions météorologiques de plus de 4000 aéroports (messages METAR et TAF).

Les stations disponibles sont représentées par des disques jaunes et rouges sur la carte.

Passer la souris dessus pour voir le nom de la station.

Cliquer dessus pour voir les observations et prévisions météorologiques.

Pour changer de carte: cliquez sur les boutons verts avec une croix noire pour zoomer, sur le bouton vert avec un tiret pour effectuer un zoom arrière, ou sur les flèches vertes pour les cartes adjacentes.


METAR-TAF: